Mvricosiete — 9GDN — position and weather

sailwx.info

Track history (hours):
 
Tides and Currents Weather Stations Pressure Air Temp Water Temp Dewpoint Dewpoint Depression Visibility Wind Speed Wind Dir Waves Ship Positions

Mvricosiete

Last reported at 2017-Nov-17 08:58 UTC. Time now 2017-Nov-19 01:11 UTC.
Position N 05°21' E 000°06'.

Type: Fishing. MMSI: 627762000.

Date/timePositionNaut miles runAvg speedWind from/ knotsBaromVisibWave heightAir tempDewpointWater temp
2017-Nov-17 08:58N 05°21' E 000°06'4 9.0
2017-Nov-17 08:30N 05°25' E 000°06'5 9.1
2017-Nov-17 08:00N 05°30' E 000°06'4 8.9
2017-Nov-17 07:30N 05°34' E 000°06'4 8.3
2017-Nov-17 07:00N 05°38' E 000°06'2 3.1
2017-Nov-17 06:30N 05°40' E 000°06'1 1.1
2017-Nov-17 06:00N 05°40' E 000°05'1 1.5
2017-Nov-17 05:30N 05°39' E 000°06'1 2.9
2017-Nov-17 05:00N 05°38' E 000°06'3 6.7
2017-Nov-17 04:30N 05°34' E 000°06'3 6.7
2017-Nov-17 04:00N 05°31' E 000°05'4 7.2
2017-Nov-17 03:30N 05°28' E 000°05'5 9.6
2017-Nov-17 03:00N 05°24' E 000°02'  
2017-Nov-11 11:39N 05°26' W 000°14'1 9.2
2017-Nov-11 11:29N 05°26' W 000°12'5 9.2
2017-Nov-11 11:00N 05°29' W 000°09'5 9.3
2017-Nov-11 10:30N 05°32' W 000°05'5 9.3
2017-Nov-11 10:01N 05°35' W 000°02'4 8.1
2017-Nov-11 09:30N 05°37' E 000°02'0 0.8
2017-Nov-11 09:00N 05°37' E 000°01'0 0.0
2017-Nov-11 08:31N 05°37' E 000°01'0 0.5
2017-Nov-11 08:00N 05°37' E 000°02'3 7.1
2017-Nov-11 07:31N 05°38' E 000°05'5 9.1
2017-Nov-11 07:00N 05°41' E 000°09'5 9.1
2017-Nov-11 06:30N 05°43' E 000°13'5 9.1
2017-Nov-11 06:00N 05°45' E 000°17'5 9.3
2017-Nov-11 05:30N 05°45' E 000°22'  
Track history (hours):
 
Tides and Currents Weather Stations Pressure Air Temp Water Temp Dewpoint Dewpoint Depression Visibility Wind Speed Wind Dir Waves Ship Positions

Mvricosiete

Last reported at 2017-Nov-17 08:58 UTC. Time now 2017-Nov-19 01:11 UTC.
Position N 05°21' E 000°06'.

Type: Fishing. MMSI: 627762000.

Date/timePositionNaut miles runAvg speedWind from/ knotsBaromVisibWave heightAir tempDewpointWater temp
2017-Nov-17 08:58N 05°21' E 000°06'4 9.0
2017-Nov-17 08:30N 05°25' E 000°06'5 9.1
2017-Nov-17 08:00N 05°30' E 000°06'4 8.9
2017-Nov-17 07:30N 05°34' E 000°06'4 8.3
2017-Nov-17 07:00N 05°38' E 000°06'2 3.1
2017-Nov-17 06:30N 05°40' E 000°06'1 1.1
2017-Nov-17 06:00N 05°40' E 000°05'1 1.5
2017-Nov-17 05:30N 05°39' E 000°06'1 2.9
2017-Nov-17 05:00N 05°38' E 000°06'3 6.7
2017-Nov-17 04:30N 05°34' E 000°06'3 6.7
2017-Nov-17 04:00N 05°31' E 000°05'4 7.2
2017-Nov-17 03:30N 05°28' E 000°05'5 9.6
2017-Nov-17 03:00N 05°24' E 000°02'  
2017-Nov-11 11:39N 05°26' W 000°14'1 9.2
2017-Nov-11 11:29N 05°26' W 000°12'5 9.2
2017-Nov-11 11:00N 05°29' W 000°09'5 9.3
2017-Nov-11 10:30N 05°32' W 000°05'5 9.3
2017-Nov-11 10:01N 05°35' W 000°02'4 8.1
2017-Nov-11 09:30N 05°37' E 000°02'0 0.8
2017-Nov-11 09:00N 05°37' E 000°01'0 0.0
2017-Nov-11 08:31N 05°37' E 000°01'0 0.5
2017-Nov-11 08:00N 05°37' E 000°02'3 7.1
2017-Nov-11 07:31N 05°38' E 000°05'5 9.1
2017-Nov-11 07:00N 05°41' E 000°09'5 9.1
2017-Nov-11 06:30N 05°43' E 000°13'5 9.1
2017-Nov-11 06:00N 05°45' E 000°17'5 9.3
2017-Nov-11 05:30N 05°45' E 000°22'  

Dump ship's entire track history